createdAt,value
2022-12-07T00:03:55.903Z,3.82
2022-12-07T00:09:00.042Z,3.83
2022-12-07T00:14:07.065Z,3.70
2022-12-07T00:19:13.566Z,3.76
2022-12-07T00:24:17.737Z,3.66
2022-12-07T00:29:24.387Z,3.56
2022-12-07T00:34:29.752Z,3.45
2022-12-07T00:39:33.761Z,3.46
2022-12-07T00:44:37.819Z,3.48
2022-12-07T00:49:43.185Z,3.47
2022-12-07T00:54:47.212Z,3.47
2022-12-07T00:59:51.199Z,3.26
2022-12-07T01:04:56.603Z,3.38
2022-12-07T01:10:00.827Z,3.41
2022-12-07T01:15:05.658Z,3.30
2022-12-07T01:20:12.333Z,3.33
2022-12-07T01:25:16.576Z,3.48
2022-12-07T01:30:20.840Z,3.40
2022-12-07T01:35:26.297Z,3.55
2022-12-07T01:40:30.347Z,3.47
2022-12-07T01:45:43.552Z,3.40
2022-12-07T01:50:52.406Z,3.44
2022-12-07T01:55:58.730Z,3.44
2022-12-07T02:01:02.878Z,3.31
2022-12-07T02:06:10.083Z,3.27
2022-12-07T02:11:14.256Z,3.32
2022-12-07T02:16:31.588Z,3.39
2022-12-07T02:21:43.016Z,3.21
2022-12-07T02:27:12.456Z,3.24
2022-12-07T02:32:24.663Z,3.32
2022-12-07T02:37:36.500Z,3.30
2022-12-07T02:42:45.083Z,3.12
2022-12-07T02:47:55.380Z,3.10
2022-12-07T02:52:59.463Z,3.12
2022-12-07T02:58:20.713Z,3.04
2022-12-07T03:03:26.775Z,3.04
2022-12-07T03:08:39.800Z,2.92
2022-12-07T03:13:50.723Z,3.17
2022-12-07T03:18:59.229Z,3.21
2022-12-07T03:24:09.053Z,3.10
2022-12-07T03:29:23.683Z,3.12
2022-12-07T03:34:34.053Z,2.94
2022-12-07T03:39:42.630Z,3.00
2022-12-07T03:44:46.903Z,2.89
2022-12-07T03:49:56.203Z,2.93
2022-12-07T03:55:06.436Z,2.97
2022-12-07T04:00:13.126Z,2.81
2022-12-07T04:05:18.760Z,2.86
2022-12-07T04:10:22.793Z,2.95
2022-12-07T04:15:26.793Z,2.75
2022-12-07T04:20:32.180Z,2.87
2022-12-07T04:25:36.201Z,2.92
2022-12-07T04:30:40.173Z,2.81
2022-12-07T04:35:45.762Z,2.57
2022-12-07T04:40:49.745Z,2.65
2022-12-07T04:45:53.831Z,2.80
2022-12-07T04:50:59.542Z,2.77
2022-12-07T04:56:03.577Z,2.80
2022-12-07T05:01:08.149Z,2.85
2022-12-07T05:06:14.754Z,2.68
2022-12-07T05:11:33.206Z,2.73
2022-12-07T05:16:37.469Z,2.58
2022-12-07T05:21:43.212Z,2.60
2022-12-07T05:26:47.863Z,2.84
2022-12-07T05:31:52.111Z,2.81
2022-12-07T05:37:00.651Z,2.56
2022-12-07T05:42:17.655Z,2.44
2022-12-07T05:47:21.871Z,2.46
2022-12-07T05:52:27.369Z,2.65
2022-12-07T05:57:31.654Z,2.64
2022-12-07T06:02:35.827Z,2.65
2022-12-07T06:07:41.265Z,2.47
2022-12-07T06:12:47.406Z,2.15
2022-12-07T06:17:51.582Z,2.16
2022-12-07T06:22:56.944Z,2.24
2022-12-07T06:28:00.942Z,2.39
2022-12-07T06:33:05.064Z,2.73
2022-12-07T06:38:10.509Z,3.15
2022-12-07T06:43:14.887Z,3.13
2022-12-07T06:48:18.908Z,3.12
2022-12-07T06:53:24.945Z,3.35
2022-12-07T06:58:28.962Z,3.35
2022-12-07T07:03:32.987Z,3.65
2022-12-07T07:08:39.238Z,3.71
2022-12-07T07:13:43.958Z,3.56
2022-12-07T07:18:47.999Z,3.93
2022-12-07T07:23:53.456Z,4.16
2022-12-07T07:28:57.452Z,4.02
2022-12-07T07:34:01.384Z,4.25
2022-12-07T07:39:07.098Z,4.45
2022-12-07T07:44:11.940Z,4.69
2022-12-07T07:49:15.946Z,5.06
2022-12-07T07:54:21.308Z,4.89
2022-12-07T07:59:25.860Z,5.13
2022-12-07T08:04:29.877Z,4.91
2022-12-07T08:09:35.365Z,4.80
2022-12-07T08:14:39.293Z,4.75
2022-12-07T08:19:43.349Z,5.12
2022-12-07T08:24:49.058Z,5.10
2022-12-07T08:29:53.111Z,5.36
2022-12-07T08:34:57.284Z,5.75
2022-12-07T08:40:03.100Z,5.93
2022-12-07T08:45:08.980Z,6.10
2022-12-07T08:50:14.743Z,6.44
2022-12-07T08:55:21.765Z,6.49
2022-12-07T09:00:26.904Z,6.50
2022-12-07T09:05:31.009Z,6.62
2022-12-07T09:10:36.395Z,7.36
2022-12-07T09:15:40.640Z,7.09
2022-12-07T09:20:44.662Z,6.87
2022-12-07T09:25:50.142Z,7.33
2022-12-07T09:31:22.061Z,7.46
2022-12-07T09:36:18.036Z,9.47
2022-12-07T09:41:23.746Z,9.74
2022-12-07T09:46:28.253Z,10.55
2022-12-07T09:51:34.221Z,10.45
2022-12-07T09:56:39.778Z,10.08
2022-12-07T10:01:44.513Z,10.05
2022-12-07T10:06:49.033Z,9.63
2022-12-07T10:12:09.801Z,9.63
2022-12-07T10:17:39.827Z,10.07
2022-12-07T10:22:58.442Z,10.11
2022-12-07T10:28:13.180Z,10.15
2022-12-07T10:33:31.371Z,10.38
2022-12-07T10:38:35.546Z,10.30
2022-12-07T10:43:50.067Z,10.89
2022-12-07T10:49:06.387Z,11.76
2022-12-07T10:54:18.146Z,12.32
2022-12-07T10:59:42.985Z,13.75
2022-12-07T11:05:01.994Z,13.54
2022-12-07T11:10:14.546Z,13.15
2022-12-07T11:15:27.171Z,13.43
2022-12-07T11:20:42.302Z,13.61
2022-12-07T11:25:54.218Z,14.29
2022-12-07T11:31:11.294Z,13.19
2022-12-07T11:36:33.356Z,12.98
2022-12-07T11:41:39.937Z,12.90
2022-12-07T11:46:52.079Z,12.70
2022-12-07T11:52:01.398Z,11.68
2022-12-07T11:57:16.871Z,10.88
2022-12-07T12:02:29.341Z,10.85
2022-12-07T12:19:09.937Z,10.42
2022-12-07T12:24:19.155Z,11.48
2022-12-07T12:29:29.405Z,11.71
2022-12-07T12:34:46.767Z,12.09
2022-12-07T12:40:31.927Z,11.80
2022-12-07T12:45:35.958Z,11.46
2022-12-07T12:50:41.336Z,11.96
2022-12-07T12:56:13.251Z,10.74
2022-12-07T13:01:43.168Z,11.11
2022-12-07T13:06:49.457Z,10.76
2022-12-07T13:12:03.604Z,10.03
2022-12-07T13:17:09.895Z,9.90
2022-12-07T13:22:49.174Z,9.97
2022-12-07T13:27:59.632Z,10.18
2022-12-07T13:33:06.062Z,9.76
2022-12-07T13:38:31.147Z,9.70
2022-12-07T13:43:45.516Z,9.52
2022-12-07T13:48:51.248Z,9.30
2022-12-07T13:54:01.595Z,9.24
2022-12-07T13:59:08.436Z,8.73
2022-12-07T14:04:34.527Z,8.68
2022-12-07T14:09:40.194Z,8.34
2022-12-07T14:14:50.057Z,7.91
2022-12-07T14:19:56.438Z,7.85
2022-12-07T14:25:19.431Z,7.70
2022-12-07T14:30:24.224Z,7.53
2022-12-07T14:35:29.067Z,7.28
2022-12-07T14:40:34.984Z,7.15
2022-12-07T14:45:40.758Z,6.74
2022-12-07T14:56:13.683Z,6.56
2022-12-07T15:01:17.768Z,6.17
2022-12-07T15:06:21.864Z,6.04
2022-12-07T15:11:27.254Z,5.97
2022-12-07T15:16:52.418Z,5.68
2022-12-07T15:21:56.120Z,5.42
2022-12-07T15:27:01.535Z,5.22
2022-12-07T15:32:05.719Z,5.12
2022-12-07T15:37:10.535Z,4.98
2022-12-07T15:42:15.920Z,4.76
2022-12-07T15:47:19.994Z,4.89
2022-12-07T15:52:24.198Z,4.71
2022-12-07T15:57:29.706Z,4.53
2022-12-07T16:02:39.465Z,4.75
2022-12-07T16:07:44.752Z,4.84
2022-12-07T16:12:50.160Z,4.86
2022-12-07T16:17:55.388Z,4.68
2022-12-07T16:22:59.527Z,4.71
2022-12-07T16:28:05.408Z,4.50
2022-12-07T16:33:09.889Z,4.26
2022-12-07T16:38:14.041Z,4.14
2022-12-07T16:43:20.110Z,4.30
2022-12-07T16:48:24.522Z,4.15
2022-12-07T16:53:28.640Z,4.17
2022-12-07T16:58:34.507Z,3.84
2022-12-07T17:03:38.499Z,3.47
2022-12-07T17:08:42.551Z,3.36
2022-12-07T17:14:06.068Z,3.38
2022-12-07T17:19:12.431Z,3.87
2022-12-07T17:24:18.314Z,3.85
2022-12-07T17:29:23.967Z,3.80
2022-12-07T17:34:30.396Z,3.72
2022-12-07T17:39:34.502Z,3.53
2022-12-07T17:44:40.077Z,3.35
2022-12-07T17:49:46.697Z,3.14
2022-12-07T17:54:50.706Z,2.95
2022-12-07T17:59:57.054Z,2.93
2022-12-07T18:05:01.347Z,2.87
2022-12-07T18:10:07.650Z,3.00
2022-12-07T18:15:13.535Z,3.17
2022-12-07T18:20:17.857Z,3.35
2022-12-07T18:25:21.976Z,3.22
2022-12-07T18:30:58.619Z,3.10
2022-12-07T18:35:54.081Z,2.72
2022-12-07T18:40:58.336Z,2.44
2022-12-07T18:46:12.190Z,2.29
2022-12-07T18:51:17.363Z,2.54
2022-12-07T18:56:23.874Z,2.72
2022-12-07T19:01:30.499Z,2.87
2022-12-07T19:06:34.876Z,2.56
2022-12-07T19:11:51.412Z,2.57
2022-12-07T19:16:59.216Z,2.48
2022-12-07T19:22:04.007Z,2.71
2022-12-07T19:27:09.111Z,2.84
2022-12-07T19:32:15.162Z,2.73
2022-12-07T19:37:19.652Z,2.75
2022-12-07T19:42:23.737Z,2.66
2022-12-07T19:47:29.198Z,2.60
2022-12-07T19:52:36.653Z,2.52
2022-12-07T19:57:41.116Z,2.62
2022-12-07T20:02:46.731Z,2.57
2022-12-07T20:07:50.817Z,2.78
2022-12-07T20:13:12.480Z,2.83
2022-12-07T20:18:18.117Z,2.76
2022-12-07T20:23:22.169Z,2.89
2022-12-07T20:28:26.232Z,3.15
2022-12-07T20:33:32.021Z,3.05
2022-12-07T20:38:36.397Z,2.64
2022-12-07T20:43:40.498Z,2.44
2022-12-07T20:48:45.886Z,2.12
2022-12-07T20:53:49.866Z,2.04
2022-12-07T20:58:53.912Z,2.28
2022-12-07T21:04:01.275Z,2.23
2022-12-07T21:09:05.162Z,2.25
2022-12-07T21:14:10.315Z,2.28
2022-12-07T21:19:16.245Z,2.22
2022-12-07T21:24:20.268Z,2.19
2022-12-07T21:29:34.677Z,2.34
2022-12-07T21:34:48.419Z,2.34
2022-12-07T21:39:52.428Z,2.45
2022-12-07T21:44:56.391Z,2.54
2022-12-07T21:50:01.781Z,2.47
2022-12-07T21:55:06.739Z,2.49
2022-12-07T22:00:11.860Z,2.58
2022-12-07T22:05:17.389Z,2.64
2022-12-07T22:10:29.820Z,2.57
2022-12-07T22:15:33.921Z,2.34
2022-12-07T22:20:39.421Z,2.35
2022-12-07T22:25:43.401Z,2.44
2022-12-07T22:30:47.814Z,2.33
2022-12-07T22:35:55.153Z,2.48
2022-12-07T22:40:59.083Z,2.51
2022-12-07T22:46:03.503Z,2.19
2022-12-07T22:51:09.256Z,2.34
2022-12-07T22:56:13.264Z,2.05
2022-12-07T23:01:19.054Z,2.07
2022-12-07T23:06:26.422Z,1.85
2022-12-07T23:11:48.581Z,1.88
2022-12-07T23:16:52.467Z,1.78
2022-12-07T23:21:57.951Z,1.87
2022-12-07T23:27:01.964Z,1.53
2022-12-07T23:32:06.350Z,1.63
2022-12-07T23:37:11.725Z,1.51
2022-12-07T23:42:15.777Z,1.57
2022-12-07T23:47:19.826Z,1.47
2022-12-07T23:52:26.604Z,1.45
2022-12-07T23:57:30.589Z,1.35
